Time;durP1;ratioP1;P1;durP2;ratioP2;P2;SDS_P1;SDS_P2;PMS_P1;PMS_P2;Temp;Humidity;BMP_temperature;BMP_pressure;BME280_temperature;BME280_humidity;BME280_pressure;Samples;Min_cycle;Max_cycle;Signal;HPM_P1;HPM_P2
2023/06/23 00:01:06;;;;;;;0.50;0.20;;;;;;;21.15;89.00;100111.47;5054029;28;20462;-53
2023/06/23 00:03:33;;;;;;;0.50;0.20;;;;;;;21.27;90.02;100113.28;5054004;28;20529;-54
2023/06/23 00:06:00;;;;;;;0.50;0.27;;;;;;;21.33;89.56;100111.94;5053955;28;20534;-53
2023/06/23 00:08:26;;;;;;;0.50;0.20;;;;;;;21.08;89.37;100112.91;5054140;28;20473;-53
2023/06/23 00:10:53;;;;;;;0.50;0.20;;;;;;;21.10;88.97;100121.75;5054038;28;20469;-54
2023/06/23 00:13:19;;;;;;;0.50;0.20;;;;;;;21.07;89.91;100128.25;5054096;28;20470;-53
2023/06/23 00:15:46;;;;;;;0.50;0.20;;;;;;;21.12;89.36;100139.63;5053762;28;20498;-54
2023/06/23 00:18:12;;;;;;;0.50;0.20;;;;;;;21.07;89.55;100143.63;5053989;28;20475;-54
2023/06/23 00:20:39;;;;;;;0.50;0.20;;;;;;;20.82;89.79;100140.00;5053024;28;20458;-54
2023/06/23 00:23:05;;;;;;;0.50;0.30;;;;;;;21.01;89.84;100144.94;5053970;28;20467;-53
2023/06/23 00:25:32;;;;;;;0.50;0.20;;;;;;;20.81;89.91;100162.63;5053157;28;20483;-54
2023/06/23 00:27:59;;;;;;;0.50;0.20;;;;;;;20.87;90.27;100155.91;5053707;28;20987;-53
2023/06/23 00:30:26;;;;;;;0.50;0.20;;;;;;;20.82;90.12;100167.03;5053900;28;20486;-53
2023/06/23 00:32:53;;;;;;;0.50;0.20;;;;;;;20.97;89.61;100159.66;5053628;28;20958;-54
2023/06/23 00:35:19;;;;;;;0.50;0.20;;;;;;;21.14;89.96;100153.00;5053892;28;20560;-53
2023/06/23 00:37:46;;;;;;;0.50;0.23;;;;;;;20.66;90.78;100152.94;5053579;28;20472;-53
2023/06/23 00:40:12;;;;;;;0.50;0.20;;;;;;;20.73;90.69;100153.34;5053626;28;20518;-53
2023/06/23 00:42:47;;;;;;;0.50;0.20;;;;;;;20.65;90.94;100156.59;5051743;28;20943;-53
2023/06/23 00:45:14;;;;;;;0.50;0.20;;;;;;;20.76;91.46;100158.53;5047749;28;20534;-53
2023/06/23 00:47:44;;;;;;;0.50;0.30;;;;;;;20.80;91.70;100155.47;5053412;28;20466;-53
2023/06/23 00:50:17;;;;;;;0.50;0.30;;;;;;;20.55;91.81;100169.91;5048464;28;20494;-54
2023/06/23 00:52:51;;;;;;;0.50;0.20;;;;;;;20.91;90.67;100171.78;5053040;28;20887;-53
2023/06/23 00:55:23;;;;;;;0.50;0.20;;;;;;;20.67;91.29;100176.25;5053025;28;20986;-53
2023/06/23 00:57:51;;;;;;;0.50;0.20;;;;;;;20.67;91.30;100170.84;5058305;28;20951;-54
2023/06/23 01:00:20;;;;;;;1.50;1.50;;;;;;;20.65;90.76;100175.50;5053074;28;20494;-53
2023/06/23 01:02:53;;;;;;;0.50;0.20;;;;;;;20.84;90.10;100167.81;5053209;28;20467;-53
2023/06/23 01:05:23;;;;;;;0.60;0.60;;;;;;;20.52;90.73;100182.75;5053032;28;20482;-53
2023/06/23 01:08:03;;;;;;;0.97;0.90;;;;;;;20.73;90.34;100185.78;5052672;28;20473;-54
2023/06/23 01:10:37;;;;;;;0.50;0.30;;;;;;;20.63;90.71;100188.28;5053029;28;20916;-53
2023/06/23 01:13:13;;;;;;;0.50;0.20;;;;;;;20.67;90.53;100197.88;5048421;28;20963;-53
2023/06/23 01:15:46;;;;;;;0.50;0.20;;;;;;;20.64;90.82;100184.59;5052453;28;20528;-54
2023/06/23 01:18:44;;;;;;;0.50;0.20;;;;;;;20.76;90.21;100205.31;5052635;28;20494;-53
2023/06/23 01:21:15;;;;;;;0.50;0.20;;;;;;;20.90;90.54;100207.03;5046319;28;20541;-53
2023/06/23 01:23:53;;;;;;;0.50;0.20;;;;;;;20.56;91.66;100212.16;5052427;28;20466;-53
2023/06/23 01:26:32;;;;;;;0.50;0.20;;;;;;;20.73;90.60;100213.66;5052306;28;20517;-53
2023/06/23 01:29:01;;;;;;;0.50;0.20;;;;;;;20.80;91.08;100217.63;5051341;28;20467;-53
2023/06/23 01:31:35;;;;;;;0.50;0.20;;;;;;;21.08;89.79;100218.31;5052496;28;20874;-53
2023/06/23 01:34:04;;;;;;;0.50;0.20;;;;;;;20.60;90.99;100218.22;5052340;28;20462;-54
2023/06/23 01:36:34;;;;;;;0.50;0.30;;;;;;;20.97;90.13;100224.53;5048544;28;20551;-54
2023/06/23 01:39:03;;;;;;;1.13;1.13;;;;;;;20.81;90.29;100215.78;5052324;28;20481;-53
2023/06/23 01:41:33;;;;;;;0.50;0.20;;;;;;;20.68;90.56;100232.00;5051154;28;20503;-53
2023/06/23 01:44:05;;;;;;;0.50;0.30;;;;;;;20.69;90.92;100225.63;5044649;28;20978;-53
2023/06/23 01:46:35;;;;;;;0.50;0.20;;;;;;;20.44;91.97;100228.38;5051845;28;20466;-53
2023/06/23 01:49:10;;;;;;;0.50;0.20;;;;;;;20.62;91.67;100230.63;5052332;28;20501;-53
2023/06/23 01:51:44;;;;;;;0.50;0.20;;;;;;;20.75;90.87;100240.56;5051635;28;20461;-53
2023/06/23 01:54:12;;;;;;;0.50;0.20;;;;;;;20.67;90.38;100239.25;5052148;28;20458;-54
2023/06/23 01:56:43;;;;;;;0.50;0.20;;;;;;;20.70;89.92;100240.91;5049626;28;20501;-53
2023/06/23 01:59:11;;;;;;;0.50;0.20;;;;;;;20.66;90.05;100248.34;5051986;28;20584;-54
2023/06/23 02:01:42;;;;;;;0.50;0.20;;;;;;;20.68;89.37;100250.91;5051630;28;20470;-53
2023/06/23 02:04:10;;;;;;;0.50;0.27;;;;;;;20.73;89.17;100248.78;5051644;28;20473;-54
2023/06/23 02:06:38;;;;;;;0.50;0.20;;;;;;;20.80;89.29;100260.00;5051794;28;20469;-54
2023/06/23 02:09:07;;;;;;;0.50;0.30;;;;;;;20.61;89.66;100252.34;5051849;28;20520;-54
2023/06/23 02:11:35;;;;;;;0.50;0.20;;;;;;;20.71;89.21;100250.72;5051732;28;20959;-53
2023/06/23 02:14:03;;;;;;;0.50;0.20;;;;;;;20.45;89.92;100254.41;5052032;28;20490;-53
2023/06/23 02:16:33;;;;;;;0.50;0.20;;;;;;;20.46;90.37;100251.59;5051765;28;20462;-53
2023/06/23 02:19:01;;;;;;;0.50;0.20;;;;;;;20.67;89.75;100262.69;5049441;28;20985;-53
2023/06/23 02:21:29;;;;;;;0.87;0.87;;;;;;;20.84;88.26;100270.50;5051946;28;20867;-53
2023/06/23 02:24:02;;;;;;;0.50;0.20;;;;;;;20.77;88.87;100273.72;5051648;28;20472;-53
2023/06/23 02:26:29;;;;;;;0.50;0.20;;;;;;;20.78;89.30;100278.16;5051502;28;20488;-53
2023/06/23 02:28:55;;;;;;;0.50;0.20;;;;;;;20.71;88.35;100280.44;5051324;28;20518;-53
2023/06/23 02:31:23;;;;;;;0.50;0.20;;;;;;;20.99;88.01;100282.91;5051919;28;20899;-53
2023/06/23 02:33:51;;;;;;;0.50;0.20;;;;;;;20.70;88.76;100286.81;5055359;28;20544;-53
2023/06/23 02:36:20;;;;;;;0.50;0.20;;;;;;;20.86;88.51;100286.59;5051829;28;20584;-53
2023/06/23 02:38:49;;;;;;;0.50;0.20;;;;;;;20.91;88.01;100296.09;5050393;28;20466;-53
2023/06/23 02:41:17;;;;;;;0.50;0.20;;;;;;;20.89;88.92;100289.06;5051443;28;20458;-53
2023/06/23 02:43:50;;;;;;;0.50;0.20;;;;;;;20.85;88.27;100293.84;5051521;28;20466;-53
2023/06/23 02:46:19;;;;;;;0.50;0.20;;;;;;;20.80;88.56;100298.69;5069024;23;21110;-49
2023/06/23 02:48:50;;;;;;;0.50;0.20;;;;;;;20.78;88.32;100292.53;5055383;28;20493;-51
2023/06/23 02:51:21;;;;;;;0.50;0.20;;;;;;;20.89;87.64;100297.19;5055659;28;20491;-50
2023/06/23 02:53:54;;;;;;;0.50;0.20;;;;;;;20.87;87.90;100301.84;5055504;28;20517;-51
2023/06/23 02:56:25;;;;;;;0.50;0.20;;;;;;;20.67;88.25;100308.63;5055583;28;20533;-49
2023/06/23 02:59:00;;;;;;;0.50;0.23;;;;;;;20.90;87.57;100305.19;5055392;28;20613;-50
2023/06/23 03:01:30;;;;;;;0.50;0.20;;;;;;;20.72;88.25;100301.09;5051675;28;20549;-49
2023/06/23 03:03:57;;;;;;;0.50;0.20;;;;;;;20.70;87.80;100306.59;5049720;28;20462;-50
2023/06/23 03:06:23;;;;;;;0.50;0.30;;;;;;;20.56;88.91;100317.50;5055146;28;20522;-50
2023/06/23 03:08:50;;;;;;;0.50;0.30;;;;;;;20.53;87.99;100328.50;5055239;28;20461;-50
2023/06/23 03:11:18;;;;;;;0.50;0.20;;;;;;;20.36;88.84;100337.72;5055316;28;20545;-48
2023/06/23 03:13:45;;;;;;;0.47;0.20;;;;;;;20.40;89.19;100332.97;5054958;28;20493;-50
2023/06/23 03:16:34;;;;;;;0.50;0.20;;;;;;;20.36;89.00;100337.72;5054855;28;20486;-49
2023/06/23 03:19:22;;;;;;;0.50;0.20;;;;;;;20.33;89.03;100347.88;5054915;28;20466;-49
2023/06/23 03:21:54;;;;;;;0.50;0.20;;;;;;;20.55;88.08;100342.75;5055012;28;20497;-49
2023/06/23 03:24:25;;;;;;;0.50;0.20;;;;;;;20.60;88.49;100355.97;5054880;28;20505;-49
2023/06/23 03:26:57;;;;;;;0.50;0.30;;;;;;;20.50;88.57;100352.16;5054301;28;20524;-54
2023/06/23 03:29:29;;;;;;;0.50;0.20;;;;;;;20.39;88.91;100350.16;5054606;28;20946;-49
2023/06/23 03:32:01;;;;;;;0.50;0.20;;;;;;;20.40;88.21;100347.34;5054751;28;20842;-49
2023/06/23 03:34:41;;;;;;;0.50;0.30;;;;;;;20.32;88.51;100340.75;5054823;28;20463;-48
2023/06/23 03:37:10;;;;;;;0.50;0.20;;;;;;;20.31;88.69;100339.91;5054762;28;20470;-50
2023/06/23 03:39:40;;;;;;;0.50;0.20;;;;;;;20.38;88.45;100354.69;5054342;28;20963;-49
2023/06/23 03:42:07;;;;;;;0.50;0.30;;;;;;;20.53;88.19;100354.66;5047836;28;20523;-49
2023/06/23 03:44:40;;;;;;;0.50;0.20;;;;;;;20.29;89.29;100360.75;5054328;28;20541;-49
2023/06/23 03:47:14;;;;;;;0.50;0.20;;;;;;;20.34;88.49;100360.41;5054520;28;20466;-49
2023/06/23 03:49:51;;;;;;;0.50;0.20;;;;;;;20.42;88.79;100363.47;5054170;28;20585;-49
2023/06/23 03:52:18;;;;;;;0.50;0.20;;;;;;;20.44;88.62;100371.50;5054422;28;20463;-50
2023/06/23 03:54:48;;;;;;;0.50;0.20;;;;;;;20.20;90.02;100385.66;5054190;28;20538;-49
2023/06/23 03:57:18;;;;;;;0.50;0.27;;;;;;;20.41;89.93;100386.91;5053985;28;20516;-51
2023/06/23 03:59:48;;;;;;;0.50;0.20;;;;;;;20.25;89.30;100397.00;5054716;28;20466;-51
2023/06/23 04:02:17;;;;;;;0.50;0.23;;;;;;;20.31;90.10;100409.22;5054684;28;20462;-49
2023/06/23 04:04:46;;;;;;;0.50;0.30;;;;;;;20.14;92.05;100413.03;5052272;28;20516;-51
2023/06/23 04:07:14;;;;;;;0.50;0.20;;;;;;;20.65;90.25;100416.78;5054790;28;20463;-51
2023/06/23 04:09:45;;;;;;;0.50;0.20;;;;;;;20.35;93.10;100440.44;5054463;28;20465;-51
2023/06/23 04:12:15;;;;;;;0.50;0.20;;;;;;;20.57;92.58;100453.44;5054516;28;20516;-51
2023/06/23 04:14:44;;;;;;;0.50;0.30;;;;;;;20.43;95.16;100456.19;5053965;28;20498;-50
2023/06/23 04:17:12;;;;;;;0.50;0.20;;;;;;;20.03;98.00;100469.56;5045487;28;20491;-49
2023/06/23 04:19:42;;;;;;;0.50;0.20;;;;;;;19.90;98.05;100465.94;5054160;28;20474;-50
2023/06/23 04:22:10;;;;;;;0.50;0.23;;;;;;;19.78;98.54;100468.44;5054142;28;20512;-50
2023/06/23 04:24:39;;;;;;;0.50;0.20;;;;;;;19.46;100.00;100462.38;5053643;28;20505;-49
2023/06/23 04:27:07;;;;;;;0.50;0.20;;;;;;;19.52;100.00;100464.66;5053551;28;20528;-49
2023/06/23 04:29:36;;;;;;;0.50;0.20;;;;;;;19.44;100.00;100475.06;5053487;28;20466;-50
2023/06/23 04:32:03;;;;;;;0.50;0.20;;;;;;;19.34;100.00;100464.97;5053650;28;20549;-49
2023/06/23 04:34:30;;;;;;;0.80;0.70;;;;;;;19.44;100.00;100461.56;5053710;28;20470;-49
2023/06/23 04:37:08;;;;;;;0.50;0.20;;;;;;;19.31;100.00;100466.00;5054129;28;20491;-49
2023/06/23 04:40:09;;;;;;;0.50;0.20;;;;;;;19.42;99.29;100471.59;5053441;28;20466;-49
2023/06/23 04:42:48;;;;;;;0.50;0.20;;;;;;;19.40;99.60;100472.66;5040951;28;20548;-48
2023/06/23 04:45:19;;;;;;;0.47;0.20;;;;;;;19.55;97.85;100468.16;5047667;28;20497;-49
2023/06/23 04:47:52;;;;;;;0.50;0.20;;;;;;;19.49;99.53;100462.16;5053291;28;20458;-49
2023/06/23 04:50:21;;;;;;;0.50;0.20;;;;;;;19.38;98.50;100472.75;5053313;28;20895;-49
2023/06/23 04:52:55;;;;;;;0.50;0.30;;;;;;;19.50;97.62;100472.00;5053006;28;20463;-49
2023/06/23 04:55:29;;;;;;;0.50;0.20;;;;;;;19.40;97.78;100475.34;5053275;28;20547;-50
2023/06/23 04:57:59;;;;;;;2.70;2.23;;;;;;;19.57;97.52;100474.31;5053485;28;20489;-50
2023/06/23 05:00:27;;;;;;;0.50;0.30;;;;;;;19.61;97.14;100476.75;5053163;28;20459;-49
2023/06/23 05:02:55;;;;;;;0.50;0.20;;;;;;;19.97;95.87;100487.00;5052621;28;20463;-50
2023/06/23 05:05:25;;;;;;;0.50;0.20;;;;;;;20.31;94.48;100477.59;5053091;28;20557;-49
2023/06/23 05:07:54;;;;;;;0.50;0.30;;;;;;;20.36;93.19;100485.38;5052724;28;20497;-49
2023/06/23 05:10:22;;;;;;;0.50;0.20;;;;;;;20.50;92.55;100474.56;5053302;28;20548;-51
2023/06/23 05:12:52;;;;;;;0.50;0.20;;;;;;;21.26;89.94;100473.91;5052371;28;20510;-51
2023/06/23 05:15:20;;;;;;;0.50;0.20;;;;;;;21.88;86.50;100482.94;5053022;28;20514;-49
2023/06/23 05:17:50;;;;;;;0.50;0.20;;;;;;;22.29;83.38;100491.75;5052410;28;20462;-48
2023/06/23 05:20:20;;;;;;;0.50;0.40;;;;;;;22.34;82.35;100503.09;5052479;28;20459;-49
2023/06/23 05:22:50;;;;;;;0.50;0.20;;;;;;;22.01;81.62;100517.25;5052679;28;20532;-49
2023/06/23 05:25:19;;;;;;;0.70;0.70;;;;;;;21.47;83.89;100520.19;5052419;28;20566;-48
2023/06/23 05:27:46;;;;;;;0.50;0.20;;;;;;;21.94;81.83;100524.97;5052276;28;20493;-49
2023/06/23 05:30:19;;;;;;;0.50;0.20;;;;;;;22.10;80.00;100530.16;5052381;28;20593;-49
2023/06/23 05:32:47;;;;;;;0.50;0.30;;;;;;;21.70;82.64;100538.41;5052609;28;20553;-49
2023/06/23 05:35:16;;;;;;;0.50;0.30;;;;;;;21.57;82.94;100541.09;5052467;28;20493;-48
2023/06/23 05:37:44;;;;;;;0.50;0.20;;;;;;;21.20;83.43;100547.28;5052226;28;20498;-49
2023/06/23 05:40:13;;;;;;;0.50;0.20;;;;;;;21.85;80.83;100550.84;5052597;28;20525;-49
2023/06/23 05:42:41;;;;;;;0.50;0.20;;;;;;;21.11;83.77;100551.50;5052068;28;20466;-49
2023/06/23 05:45:09;;;;;;;0.50;0.20;;;;;;;20.96;84.50;100553.38;5052203;28;20490;-49
2023/06/23 05:47:42;;;;;;;0.50;0.20;;;;;;;20.81;83.84;100562.53;5052244;28;20469;-49
2023/06/23 05:50:18;;;;;;;0.50;0.20;;;;;;;21.19;83.06;100575.31;5052011;28;20530;-48
2023/06/23 05:52:54;;;;;;;0.50;0.20;;;;;;;20.93;83.83;100566.25;5051846;28;21018;-49
2023/06/23 05:55:23;;;;;;;0.50;0.20;;;;;;;20.78;85.11;100575.38;5052034;28;20478;-48
2023/06/23 05:57:56;;;;;;;0.50;0.27;;;;;;;20.89;84.22;100581.81;5050444;28;20650;-48
2023/06/23 06:00:25;;;;;;;0.50;0.20;;;;;;;20.78;84.59;100589.75;5052106;28;20820;-48
2023/06/23 06:02:55;;;;;;;0.50;0.30;;;;;;;20.61;85.19;100585.47;5051714;28;20470;-49
2023/06/23 06:05:24;;;;;;;0.50;0.30;;;;;;;20.66;85.29;100590.56;5051817;28;20844;-48
2023/06/23 06:07:52;;;;;;;0.50;0.20;;;;;;;20.81;84.51;100594.09;5051796;28;20463;-49
2023/06/23 06:10:21;;;;;;;0.50;0.20;;;;;;;20.84;83.90;100597.47;5052067;28;20499;-49
2023/06/23 06:12:49;;;;;;;0.50;0.20;;;;;;;21.30;82.69;100605.22;5051580;28;20947;-49
2023/06/23 06:15:17;;;;;;;0.60;0.40;;;;;;;21.77;81.19;100604.63;5051758;28;20496;-51
2023/06/23 06:17:46;;;;;;;0.50;0.30;;;;;;;21.81;80.00;100622.41;5049841;28;20466;-49
2023/06/23 06:20:14;;;;;;;0.50;0.20;;;;;;;21.71;80.47;100618.59;5050888;28;20554;-49
2023/06/23 06:22:44;;;;;;;0.50;0.27;;;;;;;21.66;79.78;100622.63;5051766;28;21004;-49
2023/06/23 06:25:12;;;;;;;0.50;0.20;;;;;;;21.80;79.01;100617.09;5051948;28;20540;-49
2023/06/23 06:27:42;;;;;;;0.50;0.30;;;;;;;21.50;80.14;100628.19;5051651;28;20973;-49
2023/06/23 06:30:10;;;;;;;0.50;0.20;;;;;;;21.50;78.85;100630.91;5051897;28;20462;-48
2023/06/23 06:32:40;;;;;;;0.80;0.80;;;;;;;21.22;79.42;100629.16;5051569;28;20462;-48
2023/06/23 06:35:10;;;;;;;0.50;0.20;;;;;;;21.50;79.18;100634.47;5052156;28;20482;-49
2023/06/23 06:37:40;;;;;;;0.50;0.20;;;;;;;21.69;78.08;100644.03;5051940;28;20463;-49
2023/06/23 06:40:10;;;;;;;0.50;0.20;;;;;;;21.25;80.25;100654.22;5051971;28;20537;-49
2023/06/23 06:42:36;;;;;;;0.50;0.20;;;;;;;21.17;79.89;100651.13;5052059;28;20899;-48
2023/06/23 06:45:04;;;;;;;0.50;0.20;;;;;;;21.73;79.72;100662.66;5051581;28;20556;-49
2023/06/23 06:47:33;;;;;;;0.50;0.20;;;;;;;21.58;80.17;100655.59;5051937;28;20517;-49
2023/06/23 06:50:02;;;;;;;0.50;0.30;;;;;;;21.79;78.14;100653.22;5052026;28;20463;-48
2023/06/23 06:52:29;;;;;;;0.50;0.20;;;;;;;21.64;78.02;100675.94;5051872;28;20522;-49
2023/06/23 06:55:18;;;;;;;0.50;0.20;;;;;;;21.95;77.43;100670.16;5045686;28;20490;-48
2023/06/23 06:57:46;;;;;;;0.50;0.23;;;;;;;22.08;77.30;100672.91;5051455;28;20475;-48
2023/06/23 07:00:18;;;;;;;0.50;0.30;;;;;;;22.05;76.13;100675.78;5051508;28;20907;-48
2023/06/23 07:02:45;;;;;;;0.50;0.30;;;;;;;22.18;75.83;100674.84;5051340;28;20467;-48
2023/06/23 07:05:13;;;;;;;0.50;0.20;;;;;;;22.38;75.40;100680.72;5051611;28;20486;-49
2023/06/23 07:07:39;;;;;;;0.50;0.20;;;;;;;22.60;74.21;100682.72;5051393;28;20474;-48
2023/06/23 07:10:06;;;;;;;0.50;0.20;;;;;;;22.67;72.92;100687.59;5051511;28;20502;-48
2023/06/23 07:12:33;;;;;;;0.50;0.30;;;;;;;22.37;74.49;100700.66;5050952;28;20513;-49
2023/06/23 07:15:00;;;;;;;0.50;0.30;;;;;;;22.57;74.17;100701.91;5051353;28;20490;-48
2023/06/23 07:17:26;;;;;;;0.50;0.20;;;;;;;22.38;73.82;100703.25;5051360;28;20549;-48
2023/06/23 07:19:53;;;;;;;0.50;0.20;;;;;;;22.65;73.25;100708.53;5051395;28;20524;-48
2023/06/23 07:22:19;;;;;;;0.50;0.30;;;;;;;22.38;74.08;100708.66;5051266;28;20874;-49
2023/06/23 07:24:46;;;;;;;0.50;0.30;;;;;;;22.84;72.12;100713.50;5051234;28;20468;-48
2023/06/23 07:27:15;;;;;;;0.50;0.20;;;;;;;23.15;71.60;100716.66;5051163;28;20469;-50
2023/06/23 07:29:42;;;;;;;0.50;0.20;;;;;;;23.53;68.68;100724.66;5051408;28;20463;-49
2023/06/23 07:32:09;;;;;;;0.50;0.23;;;;;;;23.64;68.69;100713.91;5054838;28;20497;-49
2023/06/23 07:34:36;;;;;;;0.50;0.20;;;;;;;23.54;67.17;100721.81;5052749;28;20462;-49
2023/06/23 07:37:03;;;;;;;0.50;0.20;;;;;;;23.63;69.36;100721.16;5053147;28;20483;-49
2023/06/23 07:39:30;;;;;;;0.50;0.20;;;;;;;23.66;67.68;100730.94;5054598;28;20493;-48
2023/06/23 07:41:56;;;;;;;0.50;0.30;;;;;;;24.11;66.02;100725.63;5054444;28;20573;-48
2023/06/23 07:44:23;;;;;;;0.50;0.20;;;;;;;24.55;66.37;100726.75;5054501;28;20446;-49
2023/06/23 07:46:49;;;;;;;0.50;0.20;;;;;;;24.58;64.12;100730.09;5054195;28;20581;-49
2023/06/23 07:49:16;;;;;;;0.50;0.30;;;;;;;24.09;65.93;100733.91;5054650;28;20462;-48
2023/06/23 07:51:42;;;;;;;0.50;0.27;;;;;;;24.45;64.03;100749.22;5053909;28;20522;-49
2023/06/23 07:54:09;;;;;;;0.50;0.30;;;;;;;24.02;65.26;100748.09;5054636;28;20471;-49
2023/06/23 07:56:35;;;;;;;0.50;0.30;;;;;;;24.02;65.14;100762.56;5054184;28;20491;-49
2023/06/23 07:59:02;;;;;;;0.50;0.30;;;;;;;23.82;65.11;100749.63;5054473;28;20473;-50
2023/06/23 08:01:28;;;;;;;0.50;0.20;;;;;;;23.61;66.59;100744.84;5054322;28;20478;-49
2023/06/23 08:03:55;;;;;;;0.50;0.20;;;;;;;24.05;64.26;100747.88;5054102;28;21017;-49
2023/06/23 08:06:25;;;;;;;0.50;0.20;;;;;;;24.09;63.28;100747.50;5051497;28;20556;-49
2023/06/23 08:08:51;;;;;;;0.50;0.30;;;;;;;24.04;63.45;100747.00;5054238;28;20474;-48
2023/06/23 08:11:18;;;;;;;0.50;0.30;;;;;;;23.80;65.04;100752.47;5054113;28;20981;-49
2023/06/23 08:13:45;;;;;;;0.50;0.20;;;;;;;23.50;66.34;100761.03;5052910;28;20876;-49
2023/06/23 08:16:11;;;;;;;0.50;0.20;;;;;;;23.55;67.00;100760.69;5053917;28;20518;-49
2023/06/23 08:18:38;;;;;;;0.50;0.30;;;;;;;23.43;67.29;100769.75;5053796;28;20467;-49
2023/06/23 08:21:06;;;;;;;0.50;0.30;;;;;;;23.68;66.13;100768.81;5054038;28;21023;-48
2023/06/23 08:23:32;;;;;;;0.50;0.20;;;;;;;23.77;65.20;100774.41;5054176;28;20467;-48
2023/06/23 08:26:03;;;;;;;0.50;0.20;;;;;;;23.84;65.18;100775.66;5053923;28;20479;-48
2023/06/23 08:28:30;;;;;;;0.50;0.20;;;;;;;24.01;65.35;100774.41;5053834;28;20462;-49
2023/06/23 08:30:57;;;;;;;0.50;0.30;;;;;;;23.99;64.53;100783.66;5053893;28;20573;-49
2023/06/23 08:33:24;;;;;;;0.70;0.57;;;;;;;24.07;63.77;100776.63;5053538;28;20557;-50
2023/06/23 08:35:50;;;;;;;0.50;0.20;;;;;;;24.11;63.84;100797.13;5052410;28;20593;-48
2023/06/23 08:38:17;;;;;;;0.50;0.30;;;;;;;24.25;63.28;100790.63;5053901;28;20470;-49
2023/06/23 08:40:47;;;;;;;0.77;0.77;;;;;;;24.39;64.09;100786.88;5053505;28;20466;-49
2023/06/23 08:43:15;;;;;;;0.50;0.23;;;;;;;24.44;62.04;100792.84;5053094;28;20462;-49
2023/06/23 08:45:42;;;;;;;0.50;0.30;;;;;;;24.19;60.84;100793.84;5053095;28;21008;-49
2023/06/23 08:48:09;;;;;;;0.50;0.23;;;;;;;24.62;60.03;100794.09;5052377;28;20471;-49
2023/06/23 08:50:37;;;;;;;0.50;0.30;;;;;;;24.91;59.58;100790.91;5052351;28;20462;-49
2023/06/23 08:53:07;;;;;;;0.50;0.27;;;;;;;25.36;58.86;100795.38;5052610;28;20475;-49
2023/06/23 08:55:34;;;;;;;0.50;0.20;;;;;;;25.24;57.06;100788.22;5052309;28;20493;-50
2023/06/23 08:58:01;;;;;;;0.50;0.27;;;;;;;25.17;57.92;100799.72;5052409;28;20468;-49
2023/06/23 09:00:28;;;;;;;0.50;0.30;;;;;;;25.23;56.79;100794.66;5052297;28;20968;-49
2023/06/23 09:02:56;;;;;;;0.50;0.30;;;;;;;25.22;56.30;100811.06;5052427;28;20470;-49
2023/06/23 09:05:23;;;;;;;0.50;0.30;;;;;;;25.32;57.57;100815.66;5050777;28;21029;-49
2023/06/23 09:07:50;;;;;;;0.50;0.30;;;;;;;25.24;57.02;100814.56;5052163;28;20466;-48
2023/06/23 09:10:20;;;;;;;0.50;0.20;;;;;;;24.96;56.76;100810.47;5052274;28;20592;-48
2023/06/23 09:13:26;;;;;;;0.50;0.30;;;;;;;24.99;58.26;100827.38;5051923;28;20502;-48
2023/06/23 09:15:54;;;;;;;0.50;0.20;;;;;;;25.21;57.30;100820.22;5051553;28;20544;-49
2023/06/23 09:18:33;;;;;;;0.50;0.30;;;;;;;25.00;57.36;100826.44;5048156;28;20486;-49
2023/06/23 09:21:03;;;;;;;0.50;0.30;;;;;;;25.11;57.31;100833.75;5052046;28;20441;-49
2023/06/23 09:23:31;;;;;;;0.50;0.30;;;;;;;24.97;57.78;100831.22;5051976;28;20438;-49
2023/06/23 09:25:59;;;;;;;0.50;0.30;;;;;;;25.08;58.46;100826.69;5042781;28;21014;-49
2023/06/23 09:28:28;;;;;;;0.50;0.30;;;;;;;25.58;55.91;100816.22;5051874;28;20441;-49
2023/06/23 09:30:59;;;;;;;0.50;0.30;;;;;;;25.38;55.50;100822.47;5051976;28;20445;-49
2023/06/23 09:33:27;;;;;;;0.50;0.30;;;;;;;25.67;55.64;100833.66;5051885;28;20546;-49
2023/06/23 09:35:55;;;;;;;0.50;0.30;;;;;;;25.58;55.49;100829.84;5050322;28;20457;-48
2023/06/23 09:38:24;;;;;;;0.50;0.27;;;;;;;25.01;53.96;100832.75;5051704;28;20498;-49
2023/06/23 09:41:07;;;;;;;0.50;0.20;;;;;;;25.41;52.75;100827.66;5051790;28;20471;-49
2023/06/23 09:43:42;;;;;;;0.50;0.30;;;;;;;25.83;52.63;100830.56;5048433;28;20644;-48
2023/06/23 09:46:11;;;;;;;0.50;0.20;;;;;;;25.86;52.74;100828.44;5014000;28;1084232;-49
2023/06/23 09:48:40;;;;;;;0.50;0.20;;;;;;;25.74;52.90;100825.88;5052380;28;20461;-49
2023/06/23 09:51:06;;;;;;;0.50;0.20;;;;;;;26.27;52.85;100830.38;5052239;28;20939;-49
2023/06/23 09:53:35;;;;;;;0.50;0.30;;;;;;;26.28;50.51;100834.84;5051386;28;20512;-49
2023/06/23 09:56:04;;;;;;;0.50;0.20;;;;;;;26.28;50.83;100833.97;5052038;28;20989;-49
2023/06/23 09:58:35;;;;;;;0.50;0.20;;;;;;;26.19;52.45;100841.09;5052353;28;20466;-49
2023/06/23 10:01:07;;;;;;;0.50;0.30;;;;;;;26.32;50.96;100851.81;5049259;28;20462;-49
2023/06/23 10:03:48;;;;;;;0.50;0.30;;;;;;;26.26;51.85;100846.88;5051723;28;21001;-49
2023/06/23 10:06:34;;;;;;;0.50;0.30;;;;;;;26.53;48.78;100846.38;5047429;28;20482;-50
2023/06/23 10:09:05;;;;;;;0.50;0.20;;;;;;;26.68;50.15;100841.47;5051804;28;20458;-49
2023/06/23 10:11:34;;;;;;;0.50;0.30;;;;;;;26.74;49.12;100847.25;5051889;28;20522;-50
2023/06/23 10:14:05;;;;;;;0.50;0.30;;;;;;;26.60;48.73;100839.41;5051960;28;20495;-49
2023/06/23 10:16:36;;;;;;;0.50;0.30;;;;;;;27.13;47.35;100850.22;5051641;28;20493;-49
2023/06/23 10:19:04;;;;;;;0.50;0.20;;;;;;;26.87;48.98;100847.06;5051916;28;20466;-49
2023/06/23 10:21:31;;;;;;;0.50;0.30;;;;;;;26.83;47.58;100846.44;5051904;28;20513;-49
2023/06/23 10:24:01;;;;;;;0.50;0.30;;;;;;;26.90;48.73;100852.22;5051641;28;20550;-50
2023/06/23 10:26:31;;;;;;;0.50;0.20;;;;;;;27.18;48.56;100847.94;5051638;28;20453;-49
2023/06/23 10:28:59;;;;;;;0.50;0.30;;;;;;;27.18;48.71;100849.81;5051171;28;20503;-49
2023/06/23 10:31:29;;;;;;;0.50;0.30;;;;;;;26.99;48.19;100856.84;5051707;28;20519;-49
2023/06/23 10:34:01;;;;;;;0.50;0.30;;;;;;;26.97;49.42;100866.19;5051744;28;21003;-49
2023/06/23 10:36:30;;;;;;;0.50;0.20;;;;;;;27.17;48.92;100862.59;5050241;28;20468;-49
2023/06/23 10:39:02;;;;;;;0.50;0.30;;;;;;;27.10;47.74;100856.81;5043427;28;20549;-49
2023/06/23 10:41:32;;;;;;;0.50;0.20;;;;;;;27.00;48.38;100864.06;5051765;28;20429;-50
2023/06/23 10:44:01;;;;;;;0.50;0.30;;;;;;;26.99;48.09;100864.19;5051832;28;20510;-49
2023/06/23 10:46:27;;;;;;;0.50;0.30;;;;;;;27.56;46.54;100869.09;5051305;28;20461;-50
2023/06/23 10:48:54;;;;;;;0.50;0.30;;;;;;;27.28;46.96;100857.06;5051497;28;20466;-49
2023/06/23 10:51:23;;;;;;;0.50;0.30;;;;;;;27.84;46.25;100861.13;5051632;28;20452;-49
2023/06/23 10:54:05;;;;;;;0.50;0.30;;;;;;;28.01;45.90;100871.38;5051786;28;20515;-49
2023/06/23 10:56:36;;;;;;;0.50;0.30;;;;;;;28.10;44.93;100883.31;5051451;28;20532;-50
2023/06/23 10:59:22;;;;;;;0.50;0.30;;;;;;;28.03;45.02;100874.81;5045473;28;20433;-49
2023/06/23 11:02:00;;;;;;;0.50;0.20;;;;;;;27.07;46.48;100869.88;5051596;28;20463;-49
2023/06/23 11:04:31;;;;;;;0.50;0.30;;;;;;;27.37;44.22;100875.31;5050829;28;20469;-49
2023/06/23 11:07:15;;;;;;;0.50;0.30;;;;;;;27.95;42.90;100882.84;5047896;28;20494;-49
2023/06/23 11:09:47;;;;;;;0.50;0.30;;;;;;;27.92;43.48;100881.28;5052839;28;20469;-49
2023/06/23 11:12:38;;;;;;;0.50;0.30;;;;;;;27.60;43.07;100876.00;5055389;28;20477;-49
2023/06/23 11:15:10;;;;;;;0.50;0.30;;;;;;;27.33;43.52;100884.81;5055039;28;20969;-49
2023/06/23 11:17:41;;;;;;;0.50;0.30;;;;;;;27.74;42.14;100877.50;5054778;28;20448;-49
2023/06/23 11:20:53;;;;;;;0.50;0.30;;;;;;;27.18;43.99;100879.84;5055016;28;20444;-49
2023/06/23 11:23:19;;;;;;;0.50;0.30;;;;;;;27.19;43.65;100887.91;5048128;28;20449;-49
2023/06/23 11:25:49;;;;;;;0.50;0.30;;;;;;;27.02;43.63;100883.94;5054673;28;20464;-49
2023/06/23 11:28:38;;;;;;;0.50;0.30;;;;;;;26.55;45.37;100875.25;5054917;28;20437;-51
2023/06/23 11:31:12;;;;;;;0.50;0.30;;;;;;;26.94;46.08;100883.69;5054950;28;20867;-49
2023/06/23 11:33:42;;;;;;;0.50;0.30;;;;;;;27.20;45.22;100889.63;5054793;28;20548;-49
2023/06/23 11:36:13;;;;;;;0.50;0.30;;;;;;;27.04;46.17;100889.25;5053383;28;20518;-49
2023/06/23 11:38:41;;;;;;;0.50;0.27;;;;;;;27.04;45.79;100881.06;5054303;28;20938;-49